sensor_id;sensor_type;location;lat;lon;timestamp;P1;durP1;ratioP1;P2;durP2;ratioP2
10947;SDS011;5526;42.070;24.752;2022-11-03T00:01:34;5.85;;;2.95;;
10947;SDS011;5526;42.070;24.752;2022-11-03T00:04:03;5.65;;;2.85;;
10947;SDS011;5526;42.070;24.752;2022-11-03T00:06:31;6.53;;;2.75;;
10947;SDS011;5526;42.070;24.752;2022-11-03T00:09:05;6.50;;;3.00;;
10947;SDS011;5526;42.070;24.752;2022-11-03T00:11:35;9.20;;;3.25;;
10947;SDS011;5526;42.070;24.752;2022-11-03T00:14:04;5.50;;;2.67;;
10947;SDS011;5526;42.070;24.752;2022-11-03T00:16:33;4.25;;;2.70;;
10947;SDS011;5526;42.070;24.752;2022-11-03T00:19:01;6.80;;;3.08;;
10947;SDS011;5526;42.070;24.752;2022-11-03T00:21:30;5.80;;;3.13;;
10947;SDS011;5526;42.070;24.752;2022-11-03T00:23:58;5.05;;;2.58;;
10947;SDS011;5526;42.070;24.752;2022-11-03T00:26:29;7.15;;;2.72;;
10947;SDS011;5526;42.070;24.752;2022-11-03T00:28:59;6.68;;;2.97;;
10947;SDS011;5526;42.070;24.752;2022-11-03T00:31:28;7.25;;;2.95;;
10947;SDS011;5526;42.070;24.752;2022-11-03T00:33:58;4.28;;;3.03;;
10947;SDS011;5526;42.070;24.752;2022-11-03T00:36:27;7.38;;;3.42;;
10947;SDS011;5526;42.070;24.752;2022-11-03T00:38:56;4.88;;;3.00;;
10947;SDS011;5526;42.070;24.752;2022-11-03T00:41:24;4.80;;;3.00;;
10947;SDS011;5526;42.070;24.752;2022-11-03T00:43:54;4.25;;;2.97;;
10947;SDS011;5526;42.070;24.752;2022-11-03T00:46:23;4.30;;;2.67;;
10947;SDS011;5526;42.070;24.752;2022-11-03T00:48:51;7.85;;;2.85;;
10947;SDS011;5526;42.070;24.752;2022-11-03T00:51:20;6.13;;;2.80;;
10947;SDS011;5526;42.070;24.752;2022-11-03T00:53:49;5.50;;;2.50;;
10947;SDS011;5526;42.070;24.752;2022-11-03T00:56:18;6.47;;;3.05;;
10947;SDS011;5526;42.070;24.752;2022-11-03T00:58:48;5.35;;;2.95;;
10947;SDS011;5526;42.070;24.752;2022-11-03T01:01:19;7.22;;;3.17;;
10947;SDS011;5526;42.070;24.752;2022-11-03T01:03:49;6.88;;;2.60;;
10947;SDS011;5526;42.070;24.752;2022-11-03T01:06:36;5.68;;;2.15;;
10947;SDS011;5526;42.070;24.752;2022-11-03T01:09:18;7.97;;;2.92;;
10947;SDS011;5526;42.070;24.752;2022-11-03T01:11:50;5.85;;;3.17;;
10947;SDS011;5526;42.070;24.752;2022-11-03T01:14:22;5.65;;;2.40;;
10947;SDS011;5526;42.070;24.752;2022-11-03T01:16:52;6.45;;;2.60;;
10947;SDS011;5526;42.070;24.752;2022-11-03T01:19:20;6.25;;;2.45;;
10947;SDS011;5526;42.070;24.752;2022-11-03T01:21:49;4.68;;;2.13;;
10947;SDS011;5526;42.070;24.752;2022-11-03T01:24:17;4.55;;;2.47;;
10947;SDS011;5526;42.070;24.752;2022-11-03T01:26:45;6.75;;;2.88;;
10947;SDS011;5526;42.070;24.752;2022-11-03T01:29:13;5.43;;;2.38;;
10947;SDS011;5526;42.070;24.752;2022-11-03T01:31:41;7.43;;;2.47;;
10947;SDS011;5526;42.070;24.752;2022-11-03T01:34:13;5.63;;;2.20;;
10947;SDS011;5526;42.070;24.752;2022-11-03T01:36:42;4.72;;;2.30;;
10947;SDS011;5526;42.070;24.752;2022-11-03T01:39:10;5.68;;;2.90;;
10947;SDS011;5526;42.070;24.752;2022-11-03T01:41:40;5.35;;;2.60;;
10947;SDS011;5526;42.070;24.752;2022-11-03T01:44:25;5.65;;;2.38;;
10947;SDS011;5526;42.070;24.752;2022-11-03T01:49:51;5.82;;;2.15;;
10947;SDS011;5526;42.070;24.752;2022-11-03T01:52:25;3.63;;;2.03;;
10947;SDS011;5526;42.070;24.752;2022-11-03T01:54:59;3.35;;;2.10;;
10947;SDS011;5526;42.070;24.752;2022-11-03T01:57:32;4.50;;;2.10;;
10947;SDS011;5526;42.070;24.752;2022-11-03T02:00:04;5.78;;;2.65;;
10947;SDS011;5526;42.070;24.752;2022-11-03T02:02:33;3.85;;;2.25;;
10947;SDS011;5526;42.070;24.752;2022-11-03T02:05:03;5.38;;;1.95;;
10947;SDS011;5526;42.070;24.752;2022-11-03T02:07:34;6.97;;;3.00;;
10947;SDS011;5526;42.070;24.752;2022-11-03T02:10:06;6.63;;;2.40;;
10947;SDS011;5526;42.070;24.752;2022-11-03T02:12:34;7.15;;;2.45;;
10947;SDS011;5526;42.070;24.752;2022-11-03T02:15:05;5.28;;;2.38;;
10947;SDS011;5526;42.070;24.752;2022-11-03T02:17:36;3.97;;;2.30;;
10947;SDS011;5526;42.070;24.752;2022-11-03T02:20:08;3.72;;;2.10;;
10947;SDS011;5526;42.070;24.752;2022-11-03T02:22:55;6.97;;;2.40;;
10947;SDS011;5526;42.070;24.752;2022-11-03T02:25:36;6.45;;;2.53;;
10947;SDS011;5526;42.070;24.752;2022-11-03T02:28:09;5.65;;;2.03;;
10947;SDS011;5526;42.070;24.752;2022-11-03T02:30:41;5.90;;;2.00;;
10947;SDS011;5526;42.070;24.752;2022-11-03T02:33:16;6.57;;;2.55;;
10947;SDS011;5526;42.070;24.752;2022-11-03T02:35:56;4.18;;;2.03;;
10947;SDS011;5526;42.070;24.752;2022-11-03T02:38:29;5.50;;;2.40;;
10947;SDS011;5526;42.070;24.752;2022-11-03T02:41:04;3.63;;;2.15;;
10947;SDS011;5526;42.070;24.752;2022-11-03T02:43:35;5.00;;;2.85;;
10947;SDS011;5526;42.070;24.752;2022-11-03T02:46:04;7.10;;;2.58;;
10947;SDS011;5526;42.070;24.752;2022-11-03T02:48:33;3.63;;;2.22;;
10947;SDS011;5526;42.070;24.752;2022-11-03T02:51:02;6.22;;;2.20;;
10947;SDS011;5526;42.070;24.752;2022-11-03T02:53:30;4.10;;;2.22;;
10947;SDS011;5526;42.070;24.752;2022-11-03T02:56:08;6.45;;;2.30;;
10947;SDS011;5526;42.070;24.752;2022-11-03T02:58:41;4.30;;;2.28;;
10947;SDS011;5526;42.070;24.752;2022-11-03T03:01:16;4.10;;;2.10;;
10947;SDS011;5526;42.070;24.752;2022-11-03T03:03:51;5.88;;;2.28;;
10947;SDS011;5526;42.070;24.752;2022-11-03T03:06:22;5.40;;;2.03;;
10947;SDS011;5526;42.070;24.752;2022-11-03T03:08:53;6.00;;;1.83;;
10947;SDS011;5526;42.070;24.752;2022-11-03T03:11:27;4.35;;;2.25;;
10947;SDS011;5526;42.070;24.752;2022-11-03T03:14:05;5.85;;;2.00;;
10947;SDS011;5526;42.070;24.752;2022-11-03T03:16:41;7.07;;;3.00;;
10947;SDS011;5526;42.070;24.752;2022-11-03T03:19:19;4.28;;;2.35;;
10947;SDS011;5526;42.070;24.752;2022-11-03T03:21:52;4.30;;;2.50;;
10947;SDS011;5526;42.070;24.752;2022-11-03T03:24:25;6.50;;;2.45;;
10947;SDS011;5526;42.070;24.752;2022-11-03T03:27:04;6.18;;;2.38;;
10947;SDS011;5526;42.070;24.752;2022-11-03T03:29:38;7.10;;;2.42;;
10947;SDS011;5526;42.070;24.752;2022-11-03T03:32:10;3.80;;;2.20;;
10947;SDS011;5526;42.070;24.752;2022-11-03T03:34:43;6.78;;;2.50;;
10947;SDS011;5526;42.070;24.752;2022-11-03T03:37:15;4.85;;;2.53;;
10947;SDS011;5526;42.070;24.752;2022-11-03T03:39:45;6.28;;;2.70;;
10947;SDS011;5526;42.070;24.752;2022-11-03T03:42:19;8.05;;;2.22;;
10947;SDS011;5526;42.070;24.752;2022-11-03T03:44:48;3.45;;;1.92;;
10947;SDS011;5526;42.070;24.752;2022-11-03T03:47:18;4.82;;;2.17;;
10947;SDS011;5526;42.070;24.752;2022-11-03T03:49:50;7.15;;;2.80;;
10947;SDS011;5526;42.070;24.752;2022-11-03T03:52:18;3.40;;;2.15;;
10947;SDS011;5526;42.070;24.752;2022-11-03T03:54:47;5.57;;;2.42;;
10947;SDS011;5526;42.070;24.752;2022-11-03T03:57:16;5.88;;;2.60;;
10947;SDS011;5526;42.070;24.752;2022-11-03T03:59:47;7.07;;;2.50;;
10947;SDS011;5526;42.070;24.752;2022-11-03T04:02:15;6.72;;;3.00;;
10947;SDS011;5526;42.070;24.752;2022-11-03T04:04:43;6.97;;;2.65;;
10947;SDS011;5526;42.070;24.752;2022-11-03T04:07:11;6.13;;;2.40;;
10947;SDS011;5526;42.070;24.752;2022-11-03T04:09:56;3.75;;;1.85;;
10947;SDS011;5526;42.070;24.752;2022-11-03T04:12:24;4.25;;;2.00;;
10947;SDS011;5526;42.070;24.752;2022-11-03T04:15:10;6.30;;;2.53;;
10947;SDS011;5526;42.070;24.752;2022-11-03T04:17:56;7.47;;;2.47;;
10947;SDS011;5526;42.070;24.752;2022-11-03T04:20:40;4.47;;;2.47;;
10947;SDS011;5526;42.070;24.752;2022-11-03T04:23:25;4.72;;;2.20;;
10947;SDS011;5526;42.070;24.752;2022-11-03T04:25:54;5.00;;;2.35;;
10947;SDS011;5526;42.070;24.752;2022-11-03T04:28:23;8.10;;;2.60;;
10947;SDS011;5526;42.070;24.752;2022-11-03T04:30:56;7.82;;;3.15;;
10947;SDS011;5526;42.070;24.752;2022-11-03T04:33:24;6.72;;;2.40;;
10947;SDS011;5526;42.070;24.752;2022-11-03T04:35:52;5.97;;;2.70;;
10947;SDS011;5526;42.070;24.752;2022-11-03T04:38:24;5.38;;;2.70;;
10947;SDS011;5526;42.070;24.752;2022-11-03T04:40:54;6.32;;;2.40;;
10947;SDS011;5526;42.070;24.752;2022-11-03T04:43:27;6.50;;;2.60;;
10947;SDS011;5526;42.070;24.752;2022-11-03T04:45:59;6.03;;;2.40;;
10947;SDS011;5526;42.070;24.752;2022-11-03T04:48:27;8.38;;;2.08;;
10947;SDS011;5526;42.070;24.752;2022-11-03T04:50:57;6.50;;;2.20;;
10947;SDS011;5526;42.070;24.752;2022-11-03T04:53:27;5.13;;;2.35;;
10947;SDS011;5526;42.070;24.752;2022-11-03T04:55:59;4.97;;;2.60;;
10947;SDS011;5526;42.070;24.752;2022-11-03T04:58:27;7.10;;;2.83;;
10947;SDS011;5526;42.070;24.752;2022-11-03T05:01:00;8.48;;;2.80;;
10947;SDS011;5526;42.070;24.752;2022-11-03T05:03:30;5.18;;;2.33;;
10947;SDS011;5526;42.070;24.752;2022-11-03T05:06:00;9.93;;;3.03;;
10947;SDS011;5526;42.070;24.752;2022-11-03T05:08:35;8.55;;;2.95;;
10947;SDS011;5526;42.070;24.752;2022-11-03T05:11:07;10.77;;;2.53;;
10947;SDS011;5526;42.070;24.752;2022-11-03T05:13:40;5.95;;;2.33;;
10947;SDS011;5526;42.070;24.752;2022-11-03T05:16:10;5.43;;;2.55;;
10947;SDS011;5526;42.070;24.752;2022-11-03T05:18:39;7.47;;;2.58;;
10947;SDS011;5526;42.070;24.752;2022-11-03T05:21:10;5.43;;;2.65;;
10947;SDS011;5526;42.070;24.752;2022-11-03T05:23:41;6.95;;;2.40;;
10947;SDS011;5526;42.070;24.752;2022-11-03T05:26:13;6.82;;;2.65;;
10947;SDS011;5526;42.070;24.752;2022-11-03T05:28:45;5.32;;;2.25;;
10947;SDS011;5526;42.070;24.752;2022-11-03T05:31:21;5.32;;;2.17;;
10947;SDS011;5526;42.070;24.752;2022-11-03T05:33:53;7.32;;;2.30;;
10947;SDS011;5526;42.070;24.752;2022-11-03T05:36:24;11.23;;;2.60;;
10947;SDS011;5526;42.070;24.752;2022-11-03T05:38:55;18.38;;;3.78;;
10947;SDS011;5526;42.070;24.752;2022-11-03T05:41:28;8.95;;;3.10;;
10947;SDS011;5526;42.070;24.752;2022-11-03T05:43:57;12.13;;;3.00;;
10947;SDS011;5526;42.070;24.752;2022-11-03T05:46:47;7.78;;;2.72;;
10947;SDS011;5526;42.070;24.752;2022-11-03T05:49:15;7.28;;;2.55;;
10947;SDS011;5526;42.070;24.752;2022-11-03T05:51:44;4.32;;;2.40;;
10947;SDS011;5526;42.070;24.752;2022-11-03T05:54:15;7.63;;;2.63;;
10947;SDS011;5526;42.070;24.752;2022-11-03T05:56:47;8.55;;;2.75;;
10947;SDS011;5526;42.070;24.752;2022-11-03T05:59:16;8.63;;;2.88;;
10947;SDS011;5526;42.070;24.752;2022-11-03T06:01:51;12.02;;;3.33;;
10947;SDS011;5526;42.070;24.752;2022-11-03T06:04:21;15.38;;;3.47;;
10947;SDS011;5526;42.070;24.752;2022-11-03T06:06:53;5.47;;;2.92;;
10947;SDS011;5526;42.070;24.752;2022-11-03T06:09:24;7.07;;;2.80;;
10947;SDS011;5526;42.070;24.752;2022-11-03T06:11:54;12.45;;;3.50;;
10947;SDS011;5526;42.070;24.752;2022-11-03T06:14:23;7.53;;;2.97;;
10947;SDS011;5526;42.070;24.752;2022-11-03T06:16:56;13.90;;;3.50;;
10947;SDS011;5526;42.070;24.752;2022-11-03T06:19:27;7.80;;;3.30;;
10947;SDS011;5526;42.070;24.752;2022-11-03T06:21:58;26.35;;;10.82;;
10947;SDS011;5526;42.070;24.752;2022-11-03T06:24:32;14.50;;;5.78;;
10947;SDS011;5526;42.070;24.752;2022-11-03T06:27:00;9.73;;;3.33;;
10947;SDS011;5526;42.070;24.752;2022-11-03T06:29:29;11.82;;;3.40;;
10947;SDS011;5526;42.070;24.752;2022-11-03T06:32:01;10.93;;;5.00;;
10947;SDS011;5526;42.070;24.752;2022-11-03T06:34:31;12.15;;;4.68;;
10947;SDS011;5526;42.070;24.752;2022-11-03T06:37:09;8.23;;;4.25;;
10947;SDS011;5526;42.070;24.752;2022-11-03T06:39:43;10.07;;;3.20;;
10947;SDS011;5526;42.070;24.752;2022-11-03T06:42:12;9.45;;;3.70;;
10947;SDS011;5526;42.070;24.752;2022-11-03T06:44:42;7.40;;;3.28;;
10947;SDS011;5526;42.070;24.752;2022-11-03T06:47:23;6.88;;;3.58;;
10947;SDS011;5526;42.070;24.752;2022-11-03T06:49:53;9.88;;;4.10;;
10947;SDS011;5526;42.070;24.752;2022-11-03T06:52:28;7.45;;;3.67;;
10947;SDS011;5526;42.070;24.752;2022-11-03T06:54:58;8.57;;;3.95;;
10947;SDS011;5526;42.070;24.752;2022-11-03T06:57:43;12.27;;;4.25;;
10947;SDS011;5526;42.070;24.752;2022-11-03T07:00:14;9.20;;;3.97;;
10947;SDS011;5526;42.070;24.752;2022-11-03T07:02:52;7.47;;;4.45;;
10947;SDS011;5526;42.070;24.752;2022-11-03T07:05:28;9.73;;;4.43;;
10947;SDS011;5526;42.070;24.752;2022-11-03T07:07:57;10.68;;;4.60;;
10947;SDS011;5526;42.070;24.752;2022-11-03T07:10:27;10.13;;;4.47;;
10947;SDS011;5526;42.070;24.752;2022-11-03T07:12:58;8.38;;;4.45;;
10947;SDS011;5526;42.070;24.752;2022-11-03T07:15:32;9.27;;;4.38;;
10947;SDS011;5526;42.070;24.752;2022-11-03T07:18:03;14.18;;;4.60;;
10947;SDS011;5526;42.070;24.752;2022-11-03T07:20:38;11.93;;;4.47;;
10947;SDS011;5526;42.070;24.752;2022-11-03T07:23:06;10.25;;;3.67;;
10947;SDS011;5526;42.070;24.752;2022-11-03T07:25:40;14.35;;;4.00;;
10947;SDS011;5526;42.070;24.752;2022-11-03T07:28:08;9.05;;;4.50;;
10947;SDS011;5526;42.070;24.752;2022-11-03T07:30:46;6.30;;;3.80;;
10947;SDS011;5526;42.070;24.752;2022-11-03T07:33:18;6.85;;;3.65;;
10947;SDS011;5526;42.070;24.752;2022-11-03T07:35:50;9.88;;;4.68;;
10947;SDS011;5526;42.070;24.752;2022-11-03T07:38:22;8.10;;;4.20;;
10947;SDS011;5526;42.070;24.752;2022-11-03T07:40:51;11.23;;;5.20;;
10947;SDS011;5526;42.070;24.752;2022-11-03T07:43:23;7.28;;;4.13;;
10947;SDS011;5526;42.070;24.752;2022-11-03T07:45:59;10.93;;;4.82;;
10947;SDS011;5526;42.070;24.752;2022-11-03T07:48:31;9.75;;;4.50;;
10947;SDS011;5526;42.070;24.752;2022-11-03T07:51:05;9.05;;;4.60;;
10947;SDS011;5526;42.070;24.752;2022-11-03T07:53:43;7.88;;;4.30;;
10947;SDS011;5526;42.070;24.752;2022-11-03T07:56:14;8.57;;;4.75;;
10947;SDS011;5526;42.070;24.752;2022-11-03T07:58:45;10.55;;;4.63;;
10947;SDS011;5526;42.070;24.752;2022-11-03T08:01:26;9.23;;;5.07;;
10947;SDS011;5526;42.070;24.752;2022-11-03T08:03:59;12.63;;;5.82;;
10947;SDS011;5526;42.070;24.752;2022-11-03T08:06:30;9.75;;;6.15;;
10947;SDS011;5526;42.070;24.752;2022-11-03T08:08:58;12.90;;;6.00;;
10947;SDS011;5526;42.070;24.752;2022-11-03T08:11:26;12.93;;;6.25;;
10947;SDS011;5526;42.070;24.752;2022-11-03T08:13:54;10.13;;;6.53;;
10947;SDS011;5526;42.070;24.752;2022-11-03T08:16:22;11.90;;;6.60;;
10947;SDS011;5526;42.070;24.752;2022-11-03T08:18:50;14.18;;;6.25;;
10947;SDS011;5526;42.070;24.752;2022-11-03T08:21:19;8.68;;;6.25;;
10947;SDS011;5526;42.070;24.752;2022-11-03T08:23:47;11.77;;;6.10;;
10947;SDS011;5526;42.070;24.752;2022-11-03T08:26:15;9.45;;;5.88;;
10947;SDS011;5526;42.070;24.752;2022-11-03T08:28:43;9.35;;;6.70;;
10947;SDS011;5526;42.070;24.752;2022-11-03T08:31:11;9.77;;;6.40;;
10947;SDS011;5526;42.070;24.752;2022-11-03T08:33:39;9.77;;;6.10;;
10947;SDS011;5526;42.070;24.752;2022-11-03T08:36:07;11.02;;;6.25;;
10947;SDS011;5526;42.070;24.752;2022-11-03T08:38:37;9.45;;;5.78;;
10947;SDS011;5526;42.070;24.752;2022-11-03T08:41:06;10.90;;;5.45;;
10947;SDS011;5526;42.070;24.752;2022-11-03T08:43:34;9.25;;;6.03;;
10947;SDS011;5526;42.070;24.752;2022-11-03T08:46:02;12.15;;;6.20;;
10947;SDS011;5526;42.070;24.752;2022-11-03T08:48:30;9.57;;;5.88;;
10947;SDS011;5526;42.070;24.752;2022-11-03T08:50:58;8.52;;;6.00;;
10947;SDS011;5526;42.070;24.752;2022-11-03T08:53:26;13.93;;;6.13;;
10947;SDS011;5526;42.070;24.752;2022-11-03T08:55:56;9.32;;;5.43;;
10947;SDS011;5526;42.070;24.752;2022-11-03T08:58:24;8.00;;;5.30;;
10947;SDS011;5526;42.070;24.752;2022-11-03T09:00:52;11.13;;;5.80;;
10947;SDS011;5526;42.070;24.752;2022-11-03T09:03:20;10.73;;;5.20;;
10947;SDS011;5526;42.070;24.752;2022-11-03T09:05:48;8.38;;;5.40;;
10947;SDS011;5526;42.070;24.752;2022-11-03T09:08:18;8.25;;;5.00;;
10947;SDS011;5526;42.070;24.752;2022-11-03T09:10:46;8.82;;;5.65;;
10947;SDS011;5526;42.070;24.752;2022-11-03T09:13:16;10.77;;;5.38;;
10947;SDS011;5526;42.070;24.752;2022-11-03T09:15:44;10.35;;;5.72;;
10947;SDS011;5526;42.070;24.752;2022-11-03T09:18:16;10.55;;;5.50;;
10947;SDS011;5526;42.070;24.752;2022-11-03T09:22:11;12.15;;;5.90;;
10947;SDS011;5526;42.070;24.752;2022-11-03T09:23:47;13.07;;;6.30;;
10947;SDS011;5526;42.070;24.752;2022-11-03T09:26:19;9.32;;;5.88;;
10947;SDS011;5526;42.070;24.752;2022-11-03T09:29:04;7.40;;;5.07;;
10947;SDS011;5526;42.070;24.752;2022-11-03T09:31:35;7.38;;;5.70;;
10947;SDS011;5526;42.070;24.752;2022-11-03T09:34:03;10.43;;;5.38;;
10947;SDS011;5526;42.070;24.752;2022-11-03T09:36:37;8.15;;;5.40;;
10947;SDS011;5526;42.070;24.752;2022-11-03T09:39:58;11.85;;;5.60;;
10947;SDS011;5526;42.070;24.752;2022-11-03T09:42:26;8.73;;;5.50;;
10947;SDS011;5526;42.070;24.752;2022-11-03T09:44:54;10.32;;;6.50;;
10947;SDS011;5526;42.070;24.752;2022-11-03T09:47:23;8.55;;;5.60;;
10947;SDS011;5526;42.070;24.752;2022-11-03T09:49:59;10.95;;;5.95;;
10947;SDS011;5526;42.070;24.752;2022-11-03T09:52:27;10.27;;;6.15;;
10947;SDS011;5526;42.070;24.752;2022-11-03T09:54:58;11.25;;;6.18;;
10947;SDS011;5526;42.070;24.752;2022-11-03T09:57:26;10.20;;;6.95;;
10947;SDS011;5526;42.070;24.752;2022-11-03T09:59:54;23.17;;;6.70;;
10947;SDS011;5526;42.070;24.752;2022-11-03T10:02:24;8.73;;;5.80;;
10947;SDS011;5526;42.070;24.752;2022-11-03T10:04:55;8.30;;;6.40;;
10947;SDS011;5526;42.070;24.752;2022-11-03T10:07:25;8.65;;;5.95;;
10947;SDS011;5526;42.070;24.752;2022-11-03T10:09:54;10.55;;;6.20;;
10947;SDS011;5526;42.070;24.752;2022-11-03T10:12:26;11.68;;;6.50;;
10947;SDS011;5526;42.070;24.752;2022-11-03T10:14:57;8.50;;;6.05;;
10947;SDS011;5526;42.070;24.752;2022-11-03T10:17:30;9.85;;;6.13;;
10947;SDS011;5526;42.070;24.752;2022-11-03T10:19:58;14.20;;;6.10;;
10947;SDS011;5526;42.070;24.752;2022-11-03T10:22:28;12.15;;;6.30;;
10947;SDS011;5526;42.070;24.752;2022-11-03T10:27:57;10.05;;;6.10;;
10947;SDS011;5526;42.070;24.752;2022-11-03T10:30:48;10.27;;;6.43;;
10947;SDS011;5526;42.070;24.752;2022-11-03T10:33:24;9.80;;;6.00;;
10947;SDS011;5526;42.070;24.752;2022-11-03T10:35:55;10.95;;;6.72;;
10947;SDS011;5526;42.070;24.752;2022-11-03T10:38:25;9.93;;;5.80;;
10947;SDS011;5526;42.070;24.752;2022-11-03T10:40:56;9.30;;;6.13;;
10947;SDS011;5526;42.070;24.752;2022-11-03T10:43:37;10.40;;;6.13;;
10947;SDS011;5526;42.070;24.752;2022-11-03T10:46:10;10.02;;;6.80;;
10947;SDS011;5526;42.070;24.752;2022-11-03T10:48:41;9.80;;;6.40;;
10947;SDS011;5526;42.070;24.752;2022-11-03T10:51:11;9.18;;;6.72;;
10947;SDS011;5526;42.070;24.752;2022-11-03T10:53:45;11.32;;;6.43;;
10947;SDS011;5526;42.070;24.752;2022-11-03T10:56:14;7.65;;;5.95;;
10947;SDS011;5526;42.070;24.752;2022-11-03T10:58:43;8.48;;;6.10;;
10947;SDS011;5526;42.070;24.752;2022-11-03T11:01:11;9.13;;;5.80;;
10947;SDS011;5526;42.070;24.752;2022-11-03T11:03:40;9.70;;;6.82;;
10947;SDS011;5526;42.070;24.752;2022-11-03T11:06:17;9.98;;;6.65;;
10947;SDS011;5526;42.070;24.752;2022-11-03T11:08:47;9.80;;;6.75;;
10947;SDS011;5526;42.070;24.752;2022-11-03T11:11:20;10.75;;;6.18;;
10947;SDS011;5526;42.070;24.752;2022-11-03T11:17:01;6.88;;;6.18;;
10947;SDS011;5526;42.070;24.752;2022-11-03T11:19:29;9.07;;;6.03;;
10947;SDS011;5526;42.070;24.752;2022-11-03T11:22:20;11.57;;;6.47;;
10947;SDS011;5526;42.070;24.752;2022-11-03T11:24:58;8.45;;;6.03;;
10947;SDS011;5526;42.070;24.752;2022-11-03T11:27:52;14.70;;;6.20;;
10947;SDS011;5526;42.070;24.752;2022-11-03T11:33:28;7.88;;;5.93;;
10947;SDS011;5526;42.070;24.752;2022-11-03T11:36:03;9.18;;;5.70;;
10947;SDS011;5526;42.070;24.752;2022-11-03T11:38:54;10.23;;;5.82;;
10947;SDS011;5526;42.070;24.752;2022-11-03T11:44:50;9.68;;;5.93;;
10947;SDS011;5526;42.070;24.752;2022-11-03T11:47:23;12.90;;;6.43;;
10947;SDS011;5526;42.070;24.752;2022-11-03T11:50:02;9.75;;;6.30;;
10947;SDS011;5526;42.070;24.752;2022-11-03T11:52:43;9.52;;;6.40;;
10947;SDS011;5526;42.070;24.752;2022-11-03T11:55:16;11.40;;;7.28;;
10947;SDS011;5526;42.070;24.752;2022-11-03T11:57:50;11.02;;;6.35;;
10947;SDS011;5526;42.070;24.752;2022-11-03T12:00:21;6.95;;;6.18;;
10947;SDS011;5526;42.070;24.752;2022-11-03T12:02:50;8.27;;;6.22;;
10947;SDS011;5526;42.070;24.752;2022-11-03T12:05:20;8.60;;;6.75;;
10947;SDS011;5526;42.070;24.752;2022-11-03T12:07:50;9.65;;;6.18;;
10947;SDS011;5526;42.070;24.752;2022-11-03T12:10:19;9.57;;;6.68;;
10947;SDS011;5526;42.070;24.752;2022-11-03T12:12:50;9.18;;;6.20;;
10947;SDS011;5526;42.070;24.752;2022-11-03T12:18:29;11.27;;;6.78;;
10947;SDS011;5526;42.070;24.752;2022-11-03T12:20:58;11.73;;;6.82;;
10947;SDS011;5526;42.070;24.752;2022-11-03T12:26:16;10.35;;;7.03;;
10947;SDS011;5526;42.070;24.752;2022-11-03T12:29:04;9.52;;;6.88;;
10947;SDS011;5526;42.070;24.752;2022-11-03T12:31:34;10.48;;;7.07;;
10947;SDS011;5526;42.070;24.752;2022-11-03T12:34:02;11.18;;;6.90;;
10947;SDS011;5526;42.070;24.752;2022-11-03T12:36:30;11.65;;;7.03;;
10947;SDS011;5526;42.070;24.752;2022-11-03T12:38:58;8.95;;;6.60;;
10947;SDS011;5526;42.070;24.752;2022-11-03T12:41:26;10.07;;;6.55;;
10947;SDS011;5526;42.070;24.752;2022-11-03T12:43:53;9.73;;;6.32;;
10947;SDS011;5526;42.070;24.752;2022-11-03T12:46:22;12.98;;;6.15;;
10947;SDS011;5526;42.070;24.752;2022-11-03T12:48:51;11.75;;;6.55;;
10947;SDS011;5526;42.070;24.752;2022-11-03T12:51:20;11.35;;;6.68;;
10947;SDS011;5526;42.070;24.752;2022-11-03T12:53:49;10.40;;;6.40;;
10947;SDS011;5526;42.070;24.752;2022-11-03T12:56:17;7.70;;;6.28;;
10947;SDS011;5526;42.070;24.752;2022-11-03T12:58:45;11.10;;;7.00;;
10947;SDS011;5526;42.070;24.752;2022-11-03T13:01:13;10.02;;;7.10;;
10947;SDS011;5526;42.070;24.752;2022-11-03T13:03:41;11.35;;;6.40;;
10947;SDS011;5526;42.070;24.752;2022-11-03T13:06:11;8.98;;;6.32;;
10947;SDS011;5526;42.070;24.752;2022-11-03T13:08:39;12.07;;;6.55;;
10947;SDS011;5526;42.070;24.752;2022-11-03T13:11:07;9.90;;;6.40;;
10947;SDS011;5526;42.070;24.752;2022-11-03T13:13:48;8.25;;;6.53;;
10947;SDS011;5526;42.070;24.752;2022-11-03T13:16:16;9.60;;;6.40;;
10947;SDS011;5526;42.070;24.752;2022-11-03T13:18:44;11.95;;;6.55;;
10947;SDS011;5526;42.070;24.752;2022-11-03T13:21:14;11.13;;;6.28;;
10947;SDS011;5526;42.070;24.752;2022-11-03T13:23:42;10.68;;;6.22;;
10947;SDS011;5526;42.070;24.752;2022-11-03T13:26:10;12.23;;;6.50;;
10947;SDS011;5526;42.070;24.752;2022-11-03T13:28:38;13.10;;;6.30;;
10947;SDS011;5526;42.070;24.752;2022-11-03T13:31:06;9.20;;;6.45;;
10947;SDS011;5526;42.070;24.752;2022-11-03T13:33:35;14.63;;;6.45;;
10947;SDS011;5526;42.070;24.752;2022-11-03T13:36:03;12.05;;;6.40;;
10947;SDS011;5526;42.070;24.752;2022-11-03T13:38:36;15.15;;;6.40;;
10947;SDS011;5526;42.070;24.752;2022-11-03T13:41:04;12.85;;;6.63;;
10947;SDS011;5526;42.070;24.752;2022-11-03T13:43:32;10.68;;;6.10;;
10947;SDS011;5526;42.070;24.752;2022-11-03T13:46:00;8.18;;;5.63;;
10947;SDS011;5526;42.070;24.752;2022-11-03T13:48:29;9.00;;;6.10;;
10947;SDS011;5526;42.070;24.752;2022-11-03T13:50:57;13.43;;;6.70;;
10947;SDS011;5526;42.070;24.752;2022-11-03T13:53:26;9.18;;;6.57;;
10947;SDS011;5526;42.070;24.752;2022-11-03T13:55:56;14.98;;;6.78;;
10947;SDS011;5526;42.070;24.752;2022-11-03T13:58:24;11.05;;;6.40;;
10947;SDS011;5526;42.070;24.752;2022-11-03T14:00:52;12.43;;;7.20;;
10947;SDS011;5526;42.070;24.752;2022-11-03T14:03:20;15.70;;;6.85;;
10947;SDS011;5526;42.070;24.752;2022-11-03T14:05:48;12.65;;;6.30;;
10947;SDS011;5526;42.070;24.752;2022-11-03T14:08:16;14.15;;;6.80;;
10947;SDS011;5526;42.070;24.752;2022-11-03T14:10:45;11.90;;;7.13;;
10947;SDS011;5526;42.070;24.752;2022-11-03T14:13:14;11.50;;;6.57;;
10947;SDS011;5526;42.070;24.752;2022-11-03T14:15:41;15.50;;;6.80;;
10947;SDS011;5526;42.070;24.752;2022-11-03T14:18:09;13.20;;;6.95;;
10947;SDS011;5526;42.070;24.752;2022-11-03T14:20:37;13.90;;;6.85;;
10947;SDS011;5526;42.070;24.752;2022-11-03T14:23:05;16.05;;;6.90;;
10947;SDS011;5526;42.070;24.752;2022-11-03T14:25:33;12.88;;;7.63;;
10947;SDS011;5526;42.070;24.752;2022-11-03T14:28:01;15.38;;;10.07;;
10947;SDS011;5526;42.070;24.752;2022-11-03T14:30:31;16.88;;;9.82;;
10947;SDS011;5526;42.070;24.752;2022-11-03T14:32:59;17.85;;;9.07;;
10947;SDS011;5526;42.070;24.752;2022-11-03T14:35:28;16.13;;;8.77;;
10947;SDS011;5526;42.070;24.752;2022-11-03T14:37:55;14.20;;;8.15;;
10947;SDS011;5526;42.070;24.752;2022-11-03T14:40:23;14.40;;;8.45;;
10947;SDS011;5526;42.070;24.752;2022-11-03T14:43:08;11.80;;;7.07;;
10947;SDS011;5526;42.070;24.752;2022-11-03T14:45:37;13.57;;;6.68;;
10947;SDS011;5526;42.070;24.752;2022-11-03T14:48:05;21.60;;;7.57;;
10947;SDS011;5526;42.070;24.752;2022-11-03T14:50:33;15.70;;;8.30;;
10947;SDS011;5526;42.070;24.752;2022-11-03T14:53:02;13.65;;;8.85;;
10947;SDS011;5526;42.070;24.752;2022-11-03T14:55:30;19.58;;;9.52;;
10947;SDS011;5526;42.070;24.752;2022-11-03T14:57:58;14.70;;;9.88;;
10947;SDS011;5526;42.070;24.752;2022-11-03T15:00:25;16.30;;;10.02;;
10947;SDS011;5526;42.070;24.752;2022-11-03T15:02:55;18.48;;;9.48;;
10947;SDS011;5526;42.070;24.752;2022-11-03T15:05:23;15.80;;;10.35;;
10947;SDS011;5526;42.070;24.752;2022-11-03T15:08:05;16.38;;;9.63;;
10947;SDS011;5526;42.070;24.752;2022-11-03T15:10:33;12.80;;;9.48;;
10947;SDS011;5526;42.070;24.752;2022-11-03T15:13:02;10.88;;;8.10;;
10947;SDS011;5526;42.070;24.752;2022-11-03T15:15:30;15.38;;;8.98;;
10947;SDS011;5526;42.070;24.752;2022-11-03T15:18:01;16.65;;;8.65;;
10947;SDS011;5526;42.070;24.752;2022-11-03T15:20:29;15.25;;;8.93;;
10947;SDS011;5526;42.070;24.752;2022-11-03T15:22:59;17.48;;;9.02;;
10947;SDS011;5526;42.070;24.752;2022-11-03T15:25:28;16.27;;;8.52;;
10947;SDS011;5526;42.070;24.752;2022-11-03T15:27:56;13.30;;;7.35;;
10947;SDS011;5526;42.070;24.752;2022-11-03T15:30:24;14.07;;;7.93;;